createdAt,value
2018-07-21T00:01:09.538Z,9.60
2018-07-21T00:03:14.723Z,9.70
2018-07-21T00:05:18.372Z,10.07
2018-07-21T00:07:22.595Z,9.47
2018-07-21T00:09:26.911Z,9.10
2018-07-21T00:11:31.305Z,9.40
2018-07-21T00:13:35.756Z,8.40
2018-07-21T00:15:40.275Z,8.80
2018-07-21T00:17:45.237Z,8.90
2018-07-21T00:19:50.373Z,9.47
2018-07-21T00:21:54.899Z,8.57
2018-07-21T00:23:59.235Z,12.30
2018-07-21T00:26:03.152Z,9.90
2018-07-21T00:28:07.140Z,9.43
2018-07-21T00:30:10.986Z,8.80
2018-07-21T00:32:15.781Z,8.30
2018-07-21T00:34:20.607Z,8.80
2018-07-21T00:36:25.793Z,8.07
2018-07-21T00:38:31.089Z,8.43
2018-07-21T00:40:35.464Z,8.80
2018-07-21T00:42:39.618Z,9.30
2018-07-21T00:44:43.409Z,7.30
2018-07-21T00:46:47.301Z,8.90
2018-07-21T00:48:51.551Z,9.27
2018-07-21T00:50:55.312Z,11.10
2018-07-21T00:53:00.263Z,10.20
2018-07-21T00:55:03.952Z,8.93
2018-07-21T00:57:07.972Z,8.53
2018-07-21T00:59:12.092Z,12.27
2018-07-21T01:01:16.391Z,7.10
2018-07-21T01:03:20.304Z,9.37
2018-07-21T01:05:24.734Z,13.77
2018-07-21T01:07:29.923Z,177.50
2018-07-21T01:09:35.176Z,33.80
2018-07-21T01:11:39.715Z,40.67
2018-07-21T01:13:43.835Z,29.07
2018-07-21T01:15:47.931Z,22.63
2018-07-21T01:17:52.304Z,22.63
2018-07-21T01:19:57.521Z,19.87
2018-07-21T01:22:03.230Z,19.10
2018-07-21T01:24:08.330Z,18.53
2018-07-21T01:26:12.311Z,16.43
2018-07-21T01:28:16.061Z,15.27
2018-07-21T01:30:21.541Z,13.67
2018-07-21T01:32:25.985Z,13.03
2018-07-21T01:34:30.332Z,12.23
2018-07-21T01:36:34.152Z,12.17
2018-07-21T01:38:38.353Z,11.47
2018-07-21T01:40:42.274Z,10.27
2018-07-21T01:42:46.383Z,10.33
2018-07-21T01:44:50.509Z,10.10
2018-07-21T01:46:55.030Z,11.57
2018-07-21T01:49:04.138Z,8.90
2018-07-21T01:51:08.226Z,10.90
2018-07-21T01:53:13.427Z,10.23
2018-07-21T01:55:18.059Z,9.27
2018-07-21T01:57:21.882Z,8.40
2018-07-21T01:59:27.140Z,8.10
2018-07-21T02:01:31.343Z,9.13
2018-07-21T02:03:35.387Z,9.93
2018-07-21T02:05:39.356Z,9.50
2018-07-21T02:07:43.508Z,9.03
2018-07-21T02:09:47.568Z,8.83
2018-07-21T02:11:51.990Z,12.33
2018-07-21T02:13:56.358Z,8.47
2018-07-21T02:16:00.722Z,9.63
2018-07-21T02:18:07.267Z,8.62
2018-07-21T02:20:10.999Z,8.90
2018-07-21T02:22:14.994Z,8.37
2018-07-21T02:24:19.949Z,9.10
2018-07-21T02:26:25.030Z,9.47
2018-07-21T02:28:29.171Z,9.67
2018-07-21T02:30:32.987Z,8.90
2018-07-21T02:32:37.355Z,9.53
2018-07-21T02:34:41.961Z,9.50
2018-07-21T02:36:46.145Z,7.73
2018-07-21T02:38:49.935Z,9.83
2018-07-21T02:40:54.388Z,9.30
2018-07-21T02:42:58.351Z,9.70
2018-07-21T02:45:04.132Z,9.77
2018-07-21T02:47:09.084Z,9.23
2018-07-21T02:49:13.163Z,9.40
2018-07-21T02:51:17.393Z,9.00
2018-07-21T02:53:22.012Z,9.93
2018-07-21T02:55:26.055Z,9.20
2018-07-21T02:57:30.137Z,8.87
2018-07-21T02:59:34.740Z,8.10
2018-07-21T03:01:39.427Z,8.77
2018-07-21T03:03:43.172Z,8.60
2018-07-21T03:05:46.732Z,9.13
2018-07-21T03:07:50.537Z,9.83
2018-07-21T03:09:54.798Z,7.67
2018-07-21T03:11:58.704Z,8.83
2018-07-21T03:14:04.529Z,8.67
2018-07-21T03:16:09.673Z,8.23
2018-07-21T03:18:14.569Z,8.80
2018-07-21T03:22:27.336Z,8.47
2018-07-21T03:24:31.210Z,11.37
2018-07-21T03:26:35.892Z,10.47
2018-07-21T03:28:40.792Z,11.73
2018-07-21T03:30:44.886Z,11.53
2018-07-21T03:32:48.673Z,10.50
2018-07-21T03:34:53.793Z,16.33
2018-07-21T03:37:00.057Z,11.57
2018-07-21T03:39:03.762Z,10.77
2018-07-21T03:41:07.965Z,9.07
2018-07-21T03:43:11.892Z,10.60
2018-07-21T03:45:15.848Z,11.00
2018-07-21T03:47:20.600Z,10.60
2018-07-21T03:49:24.804Z,10.20
2018-07-21T03:51:28.992Z,11.50
2018-07-21T03:53:34.590Z,10.40
2018-07-21T03:55:43.623Z,11.27
2018-07-21T04:04:43.160Z,10.47
2018-07-21T04:06:51.879Z,11.23
2018-07-21T04:08:59.638Z,9.70
2018-07-21T04:11:08.914Z,9.50
2018-07-21T04:13:14.748Z,9.00
2018-07-21T04:15:20.512Z,9.10
2018-07-21T04:17:27.491Z,9.27
2018-07-21T04:19:32.730Z,7.73
2018-07-21T04:30:19.682Z,9.03
2018-07-21T04:32:27.280Z,8.20
2018-07-21T04:34:32.854Z,8.97
2018-07-21T04:36:46.257Z,8.53
2018-07-21T04:38:50.765Z,10.73
2018-07-21T04:43:36.141Z,7.80
2018-07-21T04:45:45.421Z,9.30
2018-07-21T04:47:52.761Z,8.20
2018-07-21T04:50:00.567Z,7.53
2018-07-21T04:52:17.282Z,6.40
2018-07-21T04:54:21.383Z,6.70
2018-07-21T04:56:28.055Z,7.37
2018-07-21T04:58:32.574Z,7.30
2018-07-21T05:00:36.494Z,6.87
2018-07-21T05:02:41.281Z,7.83
2018-07-21T05:04:46.046Z,7.37
2018-07-21T05:06:50.037Z,7.47
2018-07-21T05:08:54.331Z,8.10
2018-07-21T05:10:58.615Z,6.70
2018-07-21T05:13:02.241Z,6.53
2018-07-21T05:15:06.259Z,7.47
2018-07-21T05:17:10.232Z,7.47
2018-07-21T05:19:14.362Z,7.77
2018-07-21T05:21:18.283Z,6.37
2018-07-21T05:23:22.798Z,8.77
2018-07-21T05:25:27.338Z,7.30
2018-07-21T05:27:31.108Z,7.90
2018-07-21T05:29:34.814Z,7.57
2018-07-21T05:31:38.831Z,6.73
2018-07-21T05:33:42.950Z,8.47
2018-07-21T05:35:48.158Z,7.37
2018-07-21T05:37:51.940Z,7.43
2018-07-21T05:39:55.758Z,7.87
2018-07-21T05:41:59.393Z,6.97
2018-07-21T05:44:03.945Z,7.27
2018-07-21T05:46:08.822Z,7.33
2018-07-21T05:48:12.872Z,7.43
2018-07-21T05:50:18.190Z,7.67
2018-07-21T05:52:22.102Z,7.40
2018-07-21T05:54:28.767Z,6.97
2018-07-21T05:56:36.890Z,8.30
2018-07-21T05:58:41.196Z,7.00
2018-07-21T06:00:45.100Z,7.47
2018-07-21T06:02:49.023Z,7.23
2018-07-21T06:04:53.801Z,6.50
2018-07-21T06:06:58.544Z,6.77
2018-07-21T06:09:04.139Z,7.80
2018-07-21T06:11:08.420Z,6.67
2018-07-21T06:13:12.904Z,6.93
2018-07-21T06:15:16.738Z,7.37
2018-07-21T06:17:20.407Z,6.50
2018-07-21T06:19:24.346Z,6.70
2018-07-21T06:21:27.942Z,9.70
2018-07-21T06:23:33.048Z,7.67
2018-07-21T06:25:37.374Z,7.00
2018-07-21T06:27:41.062Z,7.23
2018-07-21T06:29:46.101Z,8.07
2018-07-21T06:31:50.268Z,6.40
2018-07-21T06:33:54.516Z,6.53
2018-07-21T06:35:58.541Z,6.77
2018-07-21T06:38:03.480Z,6.70
2018-07-21T06:40:07.786Z,6.87
2018-07-21T06:42:11.585Z,6.63
2018-07-21T06:44:15.775Z,6.93
2018-07-21T06:46:20.683Z,6.60
2018-07-21T06:48:24.402Z,6.23
2018-07-21T06:50:28.209Z,6.43
2018-07-21T06:52:31.919Z,6.50
2018-07-21T06:54:36.404Z,6.20
2018-07-21T06:56:40.520Z,6.17
2018-07-21T06:58:45.714Z,6.63
2018-07-21T07:00:49.831Z,6.57
2018-07-21T07:02:53.497Z,6.63
2018-07-21T07:05:01.411Z,6.30
2018-07-21T07:07:05.283Z,6.03
2018-07-21T07:09:09.223Z,6.97
2018-07-21T07:11:13.014Z,5.77
2018-07-21T07:13:18.311Z,6.07
2018-07-21T07:15:23.158Z,7.80
2018-07-21T07:17:27.691Z,5.37
2018-07-21T07:19:32.206Z,5.43
2018-07-21T07:21:35.798Z,8.37
2018-07-21T07:23:39.844Z,4.90
2018-07-21T07:25:45.033Z,5.30
2018-07-21T07:27:48.861Z,5.70
2018-07-21T07:29:52.515Z,5.97
2018-07-21T07:31:56.670Z,5.10
2018-07-21T07:34:00.662Z,6.00
2018-07-21T07:36:04.663Z,5.03
2018-07-21T07:38:08.790Z,4.70
2018-07-21T07:40:12.839Z,5.87
2018-07-21T07:42:17.065Z,5.47
2018-07-21T07:44:22.565Z,5.77
2018-07-21T07:46:26.516Z,5.80
2018-07-21T07:48:30.699Z,5.20
2018-07-21T07:50:34.883Z,4.73
2018-07-21T07:52:38.751Z,6.60
2018-07-21T07:54:42.571Z,6.30
2018-07-21T07:56:46.191Z,4.80
2018-07-21T07:58:51.641Z,5.40
2018-07-21T08:00:55.533Z,6.43
2018-07-21T08:02:59.151Z,5.10
2018-07-21T08:05:03.036Z,4.97
2018-07-21T08:07:07.713Z,4.40
2018-07-21T08:09:12.812Z,5.37
2018-07-21T08:11:16.795Z,4.90
2018-07-21T08:13:21.207Z,6.00
2018-07-21T08:15:25.988Z,4.90
2018-07-21T08:17:29.986Z,4.57
2018-07-21T08:19:33.928Z,5.33
2018-07-21T08:21:37.485Z,5.20
2018-07-21T08:23:41.269Z,4.50
2018-07-21T08:25:45.281Z,4.73
2018-07-21T08:27:48.951Z,5.30
2018-07-21T08:29:52.784Z,5.27
2018-07-21T08:31:57.391Z,4.17
2018-07-21T08:34:02.058Z,4.23
2018-07-21T08:36:06.540Z,5.57
2018-07-21T08:38:10.325Z,4.43
2018-07-21T08:40:14.047Z,5.00
2018-07-21T08:42:17.977Z,4.30
2018-07-21T08:44:23.919Z,4.50
2018-07-21T08:46:29.156Z,6.10
2018-07-21T08:48:33.042Z,9.00
2018-07-21T08:50:37.237Z,5.13
2018-07-21T08:52:40.872Z,4.10
2018-07-21T08:54:44.850Z,6.00
2018-07-21T08:56:49.383Z,4.50
2018-07-21T08:58:53.080Z,4.17
2018-07-21T09:00:56.779Z,4.23
2018-07-21T09:03:00.682Z,3.83
2018-07-21T09:05:04.896Z,6.53
2018-07-21T09:07:09.423Z,3.70
2018-07-21T09:09:13.425Z,4.07
2018-07-21T09:11:17.215Z,4.10
2018-07-21T09:13:21.657Z,3.37
2018-07-21T09:15:25.353Z,4.30
2018-07-21T09:17:29.845Z,3.90
2018-07-21T09:19:34.261Z,4.93
2018-07-21T09:21:38.995Z,3.90
2018-07-21T09:23:43.643Z,5.20
2018-07-21T09:25:48.167Z,3.67
2018-07-21T09:27:51.839Z,5.30
2018-07-21T09:29:55.622Z,3.17
2018-07-21T09:31:59.948Z,4.50
2018-07-21T09:34:03.973Z,4.27
2018-07-21T09:36:07.862Z,3.47
2018-07-21T09:38:11.690Z,3.90
2018-07-21T09:40:19.165Z,3.13
2018-07-21T09:42:23.270Z,3.60
2018-07-21T09:44:27.383Z,3.37
2018-07-21T09:46:31.324Z,3.43
2018-07-21T09:48:36.767Z,3.93
2018-07-21T09:50:40.714Z,3.50
2018-07-21T09:52:44.437Z,3.60
2018-07-21T09:54:49.595Z,3.43
2018-07-21T09:56:53.261Z,4.20
2018-07-21T09:58:56.867Z,3.83
2018-07-21T10:01:01.531Z,3.00
2018-07-21T10:03:05.387Z,2.90
2018-07-21T10:05:08.895Z,5.50
2018-07-21T10:07:12.983Z,3.67
2018-07-21T10:09:19.063Z,3.17
2018-07-21T10:11:23.391Z,4.37
2018-07-21T10:13:27.892Z,3.50
2018-07-21T10:15:31.524Z,3.60
2018-07-21T10:17:35.085Z,3.50
2018-07-21T10:19:38.873Z,3.90
2018-07-21T10:21:45.053Z,4.50
2018-07-21T10:23:49.364Z,4.10
2018-07-21T10:25:54.310Z,4.03
2018-07-21T10:27:58.114Z,4.20
2018-07-21T10:30:02.938Z,4.90
2018-07-21T10:32:07.240Z,2.70
2018-07-21T10:34:11.179Z,4.07
2018-07-21T10:36:14.736Z,3.47
2018-07-21T10:38:18.556Z,3.80
2018-07-21T10:40:22.227Z,4.30
2018-07-21T10:42:26.051Z,3.80
2018-07-21T10:44:30.715Z,5.07
2018-07-21T10:46:34.478Z,5.50
2018-07-21T10:48:38.288Z,4.60
2018-07-21T10:50:42.133Z,3.80
2018-07-21T10:52:45.945Z,4.60
2018-07-21T10:54:49.709Z,5.10
2018-07-21T10:56:54.614Z,6.00
2018-07-21T10:58:58.202Z,4.83
2018-07-21T11:01:02.047Z,4.50
2018-07-21T11:03:05.790Z,4.67
2018-07-21T11:05:09.616Z,3.93
2018-07-21T11:07:14.461Z,4.23
2018-07-21T11:09:19.221Z,4.33
2018-07-21T11:11:22.840Z,5.73
2018-07-21T11:13:27.501Z,5.63
2018-07-21T11:15:32.043Z,6.53
2018-07-21T11:17:36.530Z,4.50
2018-07-21T11:19:40.310Z,3.83
2018-07-21T11:21:44.025Z,4.50
2018-07-21T11:23:49.293Z,6.87
2018-07-21T11:25:53.086Z,5.80
2018-07-21T11:27:56.867Z,5.13
2018-07-21T11:30:00.886Z,4.63
2018-07-21T11:32:05.923Z,7.03
2018-07-21T11:34:09.684Z,5.03
2018-07-21T11:36:13.595Z,4.90
2018-07-21T11:38:18.253Z,5.07
2018-07-21T11:40:21.823Z,5.10
2018-07-21T11:42:25.732Z,4.20
2018-07-21T11:44:29.705Z,5.50
2018-07-21T11:46:33.538Z,7.73
2018-07-21T11:48:37.792Z,6.60
2018-07-21T11:50:42.314Z,5.40
2018-07-21T11:52:46.097Z,7.63
2018-07-21T11:54:50.085Z,6.30
2018-07-21T11:56:54.145Z,7.77
2018-07-21T11:58:58.873Z,7.50
2018-07-21T12:01:03.128Z,7.37
2018-07-21T12:03:07.032Z,6.80
2018-07-21T12:05:10.744Z,9.20
2018-07-21T12:07:14.863Z,38.20
2018-07-21T12:09:18.583Z,52.50
2018-07-21T12:11:22.376Z,53.87
2018-07-21T12:13:26.937Z,71.90
2018-07-21T12:15:31.181Z,45.50
2018-07-21T12:17:35.534Z,35.67
2018-07-21T12:19:40.103Z,31.67
2018-07-21T12:21:44.614Z,31.73
2018-07-21T12:23:48.562Z,28.67
2018-07-21T12:25:53.094Z,26.57
2018-07-21T12:27:57.378Z,25.53
2018-07-21T12:30:02.431Z,21.50
2018-07-21T12:32:06.966Z,20.10
2018-07-21T12:34:10.881Z,18.57
2018-07-21T12:36:14.658Z,19.30
2018-07-21T12:38:18.222Z,17.23
2018-07-21T12:40:23.371Z,16.63
2018-07-21T12:42:27.200Z,19.20
2018-07-21T12:44:31.095Z,16.33
2018-07-21T12:46:35.283Z,17.07
2018-07-21T12:48:39.616Z,14.63
2018-07-21T12:50:43.631Z,14.70
2018-07-21T12:52:48.249Z,17.70
2018-07-21T12:54:52.241Z,15.23
2018-07-21T12:56:56.068Z,13.70
2018-07-21T12:58:59.954Z,13.83
2018-07-21T13:01:03.785Z,15.40
2018-07-21T13:03:07.611Z,14.47
2018-07-21T13:05:11.454Z,13.33
2018-07-21T13:07:15.072Z,13.50
2018-07-21T13:09:18.743Z,13.90
2018-07-21T13:11:22.777Z,12.57
2018-07-21T13:13:28.117Z,12.63
2018-07-21T13:15:31.906Z,13.03
2018-07-21T13:17:36.440Z,11.97
2018-07-21T13:19:42.223Z,10.97
2018-07-21T13:21:45.984Z,11.30
2018-07-21T13:23:50.107Z,11.47
2018-07-21T13:25:54.081Z,16.83
2018-07-21T13:27:58.553Z,14.40
2018-07-21T13:30:02.638Z,13.83
2018-07-21T13:32:06.557Z,11.73
2018-07-21T13:34:10.468Z,11.33
2018-07-21T13:36:14.914Z,12.63
2018-07-21T13:38:19.571Z,12.40
2018-07-21T13:40:23.900Z,11.00
2018-07-21T13:42:28.740Z,11.20
2018-07-21T13:44:32.800Z,11.47
2018-07-21T13:46:37.225Z,11.70
2018-07-21T13:48:41.052Z,11.60
2018-07-21T13:50:45.165Z,11.80
2018-07-21T13:52:49.646Z,14.67
2018-07-21T13:54:53.284Z,14.43
2018-07-21T13:56:56.992Z,12.67
2018-07-21T13:59:01.019Z,15.23
2018-07-21T14:01:04.997Z,15.27
2018-07-21T14:03:08.497Z,20.90
2018-07-21T14:05:12.893Z,19.80
2018-07-21T14:07:16.711Z,25.97
2018-07-21T14:09:20.742Z,22.07
2018-07-21T14:11:25.433Z,27.53
2018-07-21T14:13:29.134Z,20.63
2018-07-21T14:15:32.932Z,17.10
2018-07-21T14:17:37.266Z,19.77
2018-07-21T14:19:41.383Z,15.70
2018-07-21T14:21:45.265Z,24.27
2018-07-21T14:23:49.119Z,17.13
2018-07-21T14:25:53.181Z,21.23
2018-07-21T14:27:58.308Z,18.80
2018-07-21T14:30:02.843Z,16.37
2018-07-21T14:32:06.566Z,21.10
2018-07-21T14:34:11.072Z,21.27
2018-07-21T14:36:14.923Z,18.60
2018-07-21T14:38:20.977Z,19.57
2018-07-21T14:40:24.613Z,18.37
2018-07-21T14:42:29.814Z,17.97
2018-07-21T14:44:35.795Z,23.60
2018-07-21T14:46:40.129Z,15.37
2018-07-21T14:48:45.809Z,14.90
2018-07-21T14:50:51.412Z,22.33
2018-07-21T14:52:56.419Z,15.40
2018-07-21T14:55:00.248Z,12.50
2018-07-21T14:57:04.367Z,23.20
2018-07-21T14:59:08.438Z,17.40
2018-07-21T15:01:12.191Z,14.47
2018-07-21T15:03:17.479Z,11.50
2018-07-21T15:05:22.254Z,14.27
2018-07-21T15:07:28.157Z,18.50
2018-07-21T15:09:32.726Z,15.77
2018-07-21T15:11:36.929Z,12.90
2018-07-21T15:13:41.085Z,14.60
2018-07-21T15:15:48.817Z,15.40
2018-07-21T15:17:53.093Z,13.10
2018-07-21T15:19:57.189Z,13.30
2018-07-21T15:22:01.893Z,12.77
2018-07-21T15:24:05.641Z,13.20
2018-07-21T15:26:10.114Z,14.23
2018-07-21T15:28:14.740Z,13.40
2018-07-21T15:30:19.767Z,13.23
2018-07-21T15:32:28.027Z,14.00
2018-07-21T15:34:33.345Z,17.30
2018-07-21T15:36:37.901Z,11.77
2018-07-21T15:38:42.216Z,13.70
2018-07-21T15:40:47.864Z,11.50
2018-07-21T15:42:51.674Z,12.27
2018-07-21T15:44:57.812Z,16.40
2018-07-21T15:47:04.612Z,11.70
2018-07-21T15:49:09.726Z,14.97
2018-07-21T15:51:15.928Z,11.00
2018-07-21T15:53:20.725Z,12.00
2018-07-21T15:55:25.431Z,12.30
2018-07-21T15:57:30.986Z,10.47
2018-07-21T15:59:36.705Z,10.37
2018-07-21T16:01:41.652Z,9.67
2018-07-21T16:03:47.292Z,11.33
2018-07-21T16:05:51.458Z,10.53
2018-07-21T16:07:56.345Z,12.67
2018-07-21T16:10:01.605Z,10.13
2018-07-21T16:12:05.611Z,10.90
2018-07-21T16:14:09.278Z,10.20
2018-07-21T16:16:13.303Z,10.03
2018-07-21T16:18:17.255Z,10.87
2018-07-21T16:20:20.820Z,10.63
2018-07-21T16:22:29.160Z,13.00
2018-07-21T16:24:35.374Z,10.73
2018-07-21T16:26:39.063Z,11.70
2018-07-21T16:28:43.609Z,11.30
2018-07-21T16:30:47.301Z,11.03
2018-07-21T16:32:52.013Z,14.63
2018-07-21T16:34:56.627Z,11.93
2018-07-21T16:37:00.556Z,8.93
2018-07-21T16:39:05.406Z,9.23
2018-07-21T16:41:09.055Z,9.77
2018-07-21T16:43:15.747Z,10.40
2018-07-21T16:45:20.608Z,10.07
2018-07-21T16:47:24.370Z,10.10
2018-07-21T16:49:29.581Z,10.80
2018-07-21T16:51:33.200Z,10.80
2018-07-21T16:53:38.528Z,9.77
2018-07-21T16:55:42.439Z,11.37
2018-07-21T16:57:46.253Z,11.33
2018-07-21T16:59:49.943Z,11.00
2018-07-21T17:01:53.882Z,10.50
2018-07-21T17:03:57.753Z,11.20
2018-07-21T17:06:04.357Z,10.83
2018-07-21T17:08:08.253Z,10.13
2018-07-21T17:10:15.615Z,9.40
2018-07-21T17:12:20.126Z,10.30
2018-07-21T17:14:24.068Z,10.63
2018-07-21T17:16:29.987Z,8.97
2018-07-21T17:18:34.250Z,10.40
2018-07-21T17:20:38.117Z,9.37
2018-07-21T17:22:41.904Z,9.70
2018-07-21T17:24:45.744Z,10.63
2018-07-21T17:26:49.508Z,11.20
2018-07-21T17:28:53.339Z,9.27
2018-07-21T17:30:57.774Z,8.93
2018-07-21T17:33:01.275Z,9.80
2018-07-21T17:35:05.343Z,9.10
2018-07-21T17:37:08.966Z,9.30
2018-07-21T17:39:13.730Z,9.07
2018-07-21T17:41:17.670Z,8.50
2018-07-21T17:43:22.207Z,10.00
2018-07-21T17:45:26.094Z,9.20
2018-07-21T17:47:30.113Z,9.53
2018-07-21T17:49:34.256Z,9.03
2018-07-21T17:51:38.025Z,8.23
2018-07-21T17:53:41.787Z,9.83
2018-07-21T17:55:45.865Z,8.30
2018-07-21T17:58:05.068Z,7.30
2018-07-21T18:00:08.885Z,7.37
2018-07-21T18:02:14.040Z,8.20
2018-07-21T18:04:20.669Z,9.97
2018-07-21T18:06:25.869Z,9.53
2018-07-21T18:08:31.783Z,6.83
2018-07-21T18:10:36.804Z,6.93
2018-07-21T18:12:40.677Z,7.20
2018-07-21T18:14:45.538Z,6.67
2018-07-21T18:16:49.983Z,7.30
2018-07-21T18:18:55.620Z,7.10
2018-07-21T18:20:59.234Z,5.80
2018-07-21T18:23:02.898Z,6.20
2018-07-21T18:25:06.602Z,5.43
2018-07-21T18:27:10.663Z,5.87
2018-07-21T18:29:15.712Z,7.13
2018-07-21T18:31:19.444Z,6.50
2018-07-21T18:33:23.812Z,6.67
2018-07-21T18:35:28.524Z,6.67
2018-07-21T18:37:33.455Z,5.90
2018-07-21T18:39:37.427Z,5.83
2018-07-21T18:41:42.187Z,6.70
2018-07-21T18:43:46.111Z,5.53
2018-07-21T18:45:50.894Z,6.13
2018-07-21T18:47:54.809Z,6.90
2018-07-21T18:49:59.738Z,6.70
2018-07-21T18:52:03.491Z,6.17
2018-07-21T18:54:07.851Z,6.87
2018-07-21T18:56:11.583Z,6.50
2018-07-21T18:58:15.705Z,6.10
2018-07-21T19:00:23.412Z,6.30
2018-07-21T19:02:27.238Z,5.73
2018-07-21T19:04:31.427Z,7.00
2018-07-21T19:06:36.431Z,5.90
2018-07-21T19:08:40.178Z,5.80
2018-07-21T19:10:44.332Z,7.37
2018-07-21T19:12:47.910Z,6.87
2018-07-21T19:14:51.606Z,9.80
2018-07-21T19:16:55.617Z,6.83
2018-07-21T19:18:59.550Z,7.20
2018-07-21T19:21:03.333Z,9.27
2018-07-21T19:23:07.437Z,8.50
2018-07-21T19:25:11.112Z,9.43
2018-07-21T19:27:14.981Z,11.70
2018-07-21T19:29:19.042Z,8.73
2018-07-21T19:31:22.628Z,10.93
2018-07-21T19:33:26.532Z,10.40
2018-07-21T19:35:30.703Z,9.60
2018-07-21T19:37:34.700Z,9.80
2018-07-21T19:39:38.270Z,9.07
2018-07-21T19:41:43.698Z,9.93
2018-07-21T19:43:47.402Z,8.43
2018-07-21T19:45:51.019Z,9.70
2018-07-21T19:47:54.979Z,9.43
2018-07-21T19:50:00.919Z,9.87
2018-07-21T19:52:05.558Z,9.63
2018-07-21T19:54:10.409Z,11.40
2018-07-21T19:56:14.196Z,12.00
2018-07-21T19:58:18.564Z,11.57
2018-07-21T20:00:22.323Z,14.73
2018-07-21T20:02:26.855Z,13.17
2018-07-21T20:04:31.484Z,13.63
2018-07-21T20:06:39.630Z,14.47
2018-07-21T20:08:43.368Z,15.00
2018-07-21T20:10:47.086Z,15.00
2018-07-21T20:12:51.301Z,13.83
2018-07-21T20:14:54.869Z,15.77
2018-07-21T20:16:58.808Z,15.60
2018-07-21T20:19:02.989Z,16.57
2018-07-21T20:21:07.115Z,16.77
2018-07-21T20:23:11.140Z,15.70
2018-07-21T20:25:14.930Z,16.50
2018-07-21T20:27:19.062Z,15.17
2018-07-21T20:29:22.805Z,17.80
2018-07-21T20:31:26.874Z,16.47
2018-07-21T20:33:30.744Z,16.00
2018-07-21T20:35:34.983Z,17.33
2018-07-21T20:37:39.903Z,18.83
2018-07-21T20:39:43.620Z,16.47
2018-07-21T20:41:47.478Z,19.13
2018-07-21T20:43:51.277Z,21.33
2018-07-21T20:45:55.307Z,19.33
2018-07-21T20:47:59.134Z,20.37
2018-07-21T20:50:02.934Z,30.27
2018-07-21T20:52:06.822Z,25.20
2018-07-21T20:54:10.827Z,29.53
2018-07-21T20:56:14.699Z,31.77
2018-07-21T20:58:18.821Z,28.67
2018-07-21T21:00:22.685Z,27.93
2018-07-21T21:02:27.576Z,26.90
2018-07-21T21:04:31.400Z,26.90
2018-07-21T21:06:37.341Z,26.53
2018-07-21T21:08:41.547Z,26.47
2018-07-21T21:10:46.105Z,25.03
2018-07-21T21:12:50.189Z,24.77
2018-07-21T21:14:54.569Z,23.93
2018-07-21T21:16:58.369Z,24.33
2018-07-21T21:19:02.363Z,36.57
2018-07-21T21:21:06.019Z,53.70
2018-07-21T21:23:09.891Z,67.60
2018-07-21T21:25:14.263Z,45.00
2018-07-21T21:27:17.804Z,38.87
2018-07-21T21:29:21.410Z,46.83
2018-07-21T21:31:25.276Z,43.23
2018-07-21T21:33:29.233Z,36.13
2018-07-21T21:35:33.310Z,33.93
2018-07-21T21:37:37.282Z,30.07
2018-07-21T21:39:41.055Z,30.33
2018-07-21T21:41:44.985Z,37.63
2018-07-21T21:43:49.281Z,31.00
2018-07-21T21:45:53.047Z,24.37
2018-07-21T21:47:58.834Z,25.77
2018-07-21T21:50:02.495Z,32.03
2018-07-21T21:52:05.999Z,31.53
2018-07-21T21:54:10.208Z,30.70
2018-07-21T21:56:14.018Z,31.97
2018-07-21T21:58:18.035Z,34.20
2018-07-21T22:00:21.901Z,37.20
2018-07-21T22:02:26.184Z,26.60
2018-07-21T22:04:31.792Z,23.67
2018-07-21T22:06:35.735Z,23.73
2018-07-21T22:08:39.691Z,23.43
2018-07-21T22:10:44.669Z,25.50
2018-07-21T22:12:48.941Z,23.10
2018-07-21T22:14:52.686Z,29.83
2018-07-21T22:16:56.701Z,18.97
2018-07-21T22:19:00.716Z,24.40
2018-07-21T22:21:05.210Z,27.43
2018-07-21T22:23:08.657Z,32.60
2018-07-21T22:25:12.997Z,34.37
2018-07-21T22:27:17.824Z,23.93
2018-07-21T22:29:21.731Z,31.13
2018-07-21T22:31:25.634Z,26.50
2018-07-21T22:33:29.443Z,21.40
2018-07-21T22:35:33.246Z,20.77
2018-07-21T22:37:37.053Z,20.67
2018-07-21T22:39:41.139Z,20.30
2018-07-21T22:41:44.931Z,21.77
2018-07-21T22:43:48.743Z,19.80
2018-07-21T22:45:52.818Z,24.43
2018-07-21T22:47:56.999Z,18.20
2018-07-21T22:50:00.799Z,20.63
2018-07-21T22:52:04.967Z,20.70
2018-07-21T22:54:08.915Z,22.73
2018-07-21T22:56:12.786Z,19.23
2018-07-21T22:58:17.013Z,28.40
2018-07-21T23:00:21.265Z,19.50
2018-07-21T23:02:25.862Z,18.93
2018-07-21T23:04:29.933Z,19.47
2018-07-21T23:06:33.642Z,18.37
2018-07-21T23:08:37.539Z,20.17
2018-07-21T23:10:41.954Z,19.00
2018-07-21T23:12:45.895Z,21.77
2018-07-21T23:14:49.561Z,18.70
2018-07-21T23:16:54.025Z,17.77
2018-07-21T23:18:57.889Z,24.23
2018-07-21T23:21:01.810Z,18.13
2018-07-21T23:23:06.097Z,18.07
2018-07-21T23:25:09.912Z,22.80
2018-07-21T23:27:14.253Z,19.20
2018-07-21T23:29:18.314Z,23.13
2018-07-21T23:31:23.165Z,22.90
2018-07-21T23:33:27.481Z,22.17
2018-07-21T23:35:31.367Z,19.97
2018-07-21T23:37:35.069Z,22.20
2018-07-21T23:39:39.179Z,19.77
2018-07-21T23:41:43.211Z,18.37
2018-07-21T23:43:47.230Z,20.17
2018-07-21T23:45:52.597Z,27.13
2018-07-21T23:47:56.678Z,23.70
2018-07-21T23:50:00.544Z,23.40
2018-07-21T23:52:06.242Z,20.60
2018-07-21T23:54:10.036Z,20.60
2018-07-21T23:56:14.155Z,20.57
2018-07-21T23:58:18.047Z,89.77
